Time;durP1;ratioP1;P1;durP2;ratioP2;P2;SDS_P1;SDS_P2;PMS_P1;PMS_P2;Temp;Humidity;BMP_temperature;BMP_pressure;BME280_temperature;BME280_humidity;BME280_pressure;Samples;Min_cycle;Max_cycle;Signal;HPM_P1;HPM_P2
2023/02/11 00:00:41;;;;;;;15.00;9.97;;;;;;;-0.80;80.14;97439.00;5020072;28;20193;-81
2023/02/11 00:03:07;;;;;;;15.00;10.03;;;;;;;-0.75;79.72;97427.00;5043063;28;20201;-81
2023/02/11 00:05:32;;;;;;;15.20;9.00;;;;;;;-0.84;79.85;97434.84;5026583;28;20185;-83
2023/02/11 00:07:57;;;;;;;16.77;9.77;;;;;;;-0.80;79.59;97431.34;5025333;28;20194;-81
2023/02/11 00:10:22;;;;;;;16.77;9.70;;;;;;;-0.86;79.51;97424.69;5041406;28;20217;-83
2023/02/11 00:12:48;;;;;;;14.50;9.40;;;;;;;-0.92;80.16;97435.84;5019021;28;20246;-80
2023/02/11 00:15:13;;;;;;;14.50;9.67;;;;;;;-0.94;80.45;97432.50;5029278;28;20200;-81
2023/02/11 00:17:38;;;;;;;15.33;8.90;;;;;;;-0.98;80.78;97430.88;5009866;28;20212;-81
2023/02/11 00:20:04;;;;;;;13.47;8.23;;;;;;;-0.92;81.04;97430.75;5029920;28;20218;-82
2023/02/11 00:22:30;;;;;;;13.83;9.83;;;;;;;-0.92;80.96;97428.19;5042782;28;20202;-82
2023/02/11 00:24:56;;;;;;;14.03;9.90;;;;;;;-0.95;81.58;97430.81;5049338;28;20243;-81
2023/02/11 00:27:21;;;;;;;14.67;8.83;;;;;;;-0.93;81.32;97430.78;5052621;28;20168;-81
2023/02/11 00:29:46;;;;;;;14.00;9.13;;;;;;;-0.93;81.32;97423.97;5046761;28;20232;-81
2023/02/11 00:32:12;;;;;;;17.43;8.57;;;;;;;-0.93;81.67;97413.78;5041252;28;20201;-81
2023/02/11 00:34:37;;;;;;;17.87;8.27;;;;;;;-0.93;81.47;97421.44;5019901;28;20248;-81
2023/02/11 00:37:02;;;;;;;14.27;8.60;;;;;;;-0.88;81.55;97427.28;5024170;28;20293;-81
2023/02/11 00:39:28;;;;;;;11.57;7.87;;;;;;;-0.90;81.99;97415.41;5037805;28;20193;-81
2023/02/11 00:41:53;;;;;;;14.07;8.40;;;;;;;-0.86;81.76;97428.09;5050328;28;20172;-81
2023/02/11 00:44:18;;;;;;;11.87;8.03;;;;;;;-0.84;82.21;97422.09;5037554;28;20186;-81
2023/02/11 00:46:44;;;;;;;10.07;6.83;;;;;;;-0.81;81.99;97416.94;5029969;28;20189;-81
2023/02/11 00:49:09;;;;;;;13.40;7.50;;;;;;;-0.80;82.52;97421.16;5032284;28;20186;-81
2023/02/11 00:51:37;;;;;;;9.17;6.73;;;;;;;-0.78;82.38;97419.44;5035401;28;20166;-81
2023/02/11 00:54:03;;;;;;;9.60;6.93;;;;;;;-0.76;82.31;97413.41;5036509;28;20178;-81
2023/02/11 00:56:28;;;;;;;9.67;5.83;;;;;;;-0.73;82.53;97412.50;5036685;28;20190;-81
2023/02/11 00:58:54;;;;;;;11.10;5.70;;;;;;;-0.71;82.13;97418.41;5031872;28;20191;-81
2023/02/11 01:01:19;;;;;;;9.87;5.77;;;;;;;-0.69;82.49;97419.22;5051306;28;20187;-81
2023/02/11 01:03:45;;;;;;;9.17;6.20;;;;;;;-0.74;82.71;97414.22;5043279;28;20241;-80
2023/02/11 01:06:10;;;;;;;9.53;4.93;;;;;;;-0.74;82.94;97413.38;5042907;28;20258;-81
2023/02/11 01:08:36;;;;;;;8.27;5.57;;;;;;;-0.70;83.75;97405.63;5037266;28;20178;-80
2023/02/11 01:11:05;;;;;;;7.67;5.20;;;;;;;-0.66;82.54;97398.75;5048002;28;20198;-82
2023/02/11 01:13:32;;;;;;;6.03;4.73;;;;;;;-0.72;82.68;97398.88;5035923;28;20260;-81
2023/02/11 01:15:57;;;;;;;6.80;4.50;;;;;;;-0.68;82.86;97395.38;5028521;28;20217;-81
2023/02/11 01:18:23;;;;;;;6.53;5.43;;;;;;;-0.69;82.75;97394.56;5036657;28;20277;-81
2023/02/11 01:20:50;;;;;;;6.97;5.10;;;;;;;-0.79;83.29;97394.81;5030247;28;20174;-82
2023/02/11 01:23:15;;;;;;;7.80;5.47;;;;;;;-0.75;82.36;97398.94;5038927;28;20217;-80
2023/02/11 01:25:41;;;;;;;8.67;5.33;;;;;;;-0.79;82.60;97397.34;5039625;28;20182;-80
2023/02/11 01:28:10;;;;;;;7.13;5.23;;;;;;;-0.87;83.20;97388.16;5037009;28;20454;-81
2023/02/11 01:30:35;;;;;;;7.63;5.73;;;;;;;-0.86;83.79;97381.34;5048093;28;20205;-82
2023/02/11 01:33:00;;;;;;;8.00;5.07;;;;;;;-0.84;83.94;97376.19;5041524;28;20224;-81
2023/02/11 01:35:25;;;;;;;7.87;5.23;;;;;;;-0.83;83.23;97373.59;5037420;28;20195;-80
2023/02/11 01:37:51;;;;;;;8.03;5.30;;;;;;;-0.78;84.09;97376.06;5030368;28;20296;-80
2023/02/11 01:40:16;;;;;;;9.00;5.97;;;;;;;-0.72;83.73;97373.34;5044035;28;20189;-81
2023/02/11 01:42:42;;;;;;;8.27;5.30;;;;;;;-0.74;83.35;97373.41;5054429;28;20210;-80
2023/02/11 01:45:45;;;;;;;7.90;5.00;;;;;;;-0.71;83.76;97367.38;5038047;28;20175;-80
2023/02/11 01:48:17;;;;;;;8.53;5.10;;;;;;;-0.65;83.11;97369.81;5053959;28;20189;-81
2023/02/11 01:50:44;;;;;;;8.90;5.00;;;;;;;-0.67;83.48;97367.28;5040514;28;20205;-80
2023/02/11 01:58:41;;;;;;;9.53;5.87;;;;;;;-0.69;82.76;97365.66;5048557;28;20236;-81
2023/02/11 02:01:07;;;;;;;8.27;5.40;;;;;;;-0.71;83.11;97362.28;5046524;28;20182;-81
2023/02/11 02:03:35;;;;;;;9.93;6.03;;;;;;;-0.72;83.25;97363.16;5039859;28;20215;-80
2023/02/11 02:06:06;;;;;;;7.50;5.37;;;;;;;-0.74;83.49;97364.91;5044645;28;20182;-80
2023/02/11 02:09:02;;;;;;;9.67;5.33;;;;;;;-0.71;83.03;97359.72;5037610;28;20437;-80
2023/02/11 02:11:28;;;;;;;8.10;5.70;;;;;;;-0.81;82.42;97354.00;5027063;28;20216;-81
2023/02/11 02:13:53;;;;;;;9.33;5.37;;;;;;;-0.90;83.85;97347.38;5023049;28;20208;-83
2023/02/11 02:16:20;;;;;;;7.23;4.90;;;;;;;-0.86;83.72;97356.66;5012745;28;20198;-82
2023/02/11 02:18:55;;;;;;;8.20;5.03;;;;;;;-0.92;84.62;97354.25;5007557;28;20254;-82
2023/02/11 02:21:39;;;;;;;8.03;5.83;;;;;;;-0.92;83.91;97348.28;5014449;28;20206;-82
2023/02/11 02:24:20;;;;;;;6.30;4.30;;;;;;;-0.89;84.71;97341.41;5025065;28;20208;-83
2023/02/11 02:27:17;;;;;;;7.80;5.17;;;;;;;-0.79;83.84;97338.69;5031571;28;20189;-83
2023/02/11 02:30:23;;;;;;;7.73;5.17;;;;;;;-0.82;83.79;97343.81;5025791;28;20188;-82
2023/02/11 02:33:01;;;;;;;7.83;4.67;;;;;;;-0.83;84.31;97355.75;5033067;28;20705;-81
2023/02/11 02:35:57;;;;;;;7.83;5.47;;;;;;;-0.79;84.73;97338.69;5002532;28;20747;-82
2023/02/11 02:38:26;;;;;;;8.17;5.17;;;;;;;-0.78;84.23;97340.34;5017961;28;20205;-82
2023/02/11 02:41:02;;;;;;;9.07;5.10;;;;;;;-0.79;84.40;97336.97;5005053;28;20193;-83
2023/02/11 02:43:28;;;;;;;6.53;4.60;;;;;;;-0.76;84.43;97336.88;5017953;28;20237;-83
2023/02/11 02:45:53;;;;;;;5.97;4.30;;;;;;;-0.73;84.69;97325.75;5017817;28;20185;-83
2023/02/11 02:48:30;;;;;;;5.13;3.93;;;;;;;-0.71;83.95;97326.56;5031439;28;20271;-82
2023/02/11 02:51:24;;;;;;;6.90;5.07;;;;;;;-0.76;83.92;97325.84;5034662;28;20182;-83
2023/02/11 02:54:00;;;;;;;6.90;4.77;;;;;;;-0.78;84.54;97325.03;5019237;28;20227;-83
2023/02/11 02:56:38;;;;;;;6.70;4.93;;;;;;;-0.78;84.13;97335.25;5015841;28;20190;-81
2023/02/11 02:59:23;;;;;;;8.03;5.40;;;;;;;-0.77;84.41;97321.63;5017749;28;20274;-83
2023/02/11 03:02:07;;;;;;;8.90;5.57;;;;;;;-0.81;84.19;97318.28;5013771;28;20186;-82
2023/02/11 03:05:10;;;;;;;9.60;5.73;;;;;;;-0.78;84.14;97325.03;5025140;28;20197;-81
2023/02/11 03:07:37;;;;;;;10.30;6.10;;;;;;;-0.87;83.99;97326.94;5023309;28;20191;-80
2023/02/11 03:10:16;;;;;;;8.87;6.07;;;;;;;-0.84;84.15;97326.00;5003664;28;20196;-82
2023/02/11 03:12:43;;;;;;;8.37;6.40;;;;;;;-0.87;84.08;97314.19;5009843;28;20272;-82
2023/02/11 03:15:09;;;;;;;8.40;5.77;;;;;;;-0.94;84.55;97310.09;5018848;28;20188;-82
2023/02/11 03:17:38;;;;;;;6.40;5.50;;;;;;;-0.91;84.49;97301.50;5027951;28;20210;-83
2023/02/11 03:20:05;;;;;;;8.30;5.03;;;;;;;-0.81;85.22;97300.41;5012471;28;20724;-82
2023/02/11 03:22:36;;;;;;;6.00;4.40;;;;;;;-0.67;85.35;97300.94;5017146;28;20729;-82
2023/02/11 03:25:01;;;;;;;6.03;4.37;;;;;;;-0.61;85.31;97293.16;5016185;28;20222;-82
2023/02/11 03:27:38;;;;;;;8.53;5.73;;;;;;;-0.49;84.31;97291.19;5019888;28;20205;-83
2023/02/11 03:30:13;;;;;;;10.17;6.23;;;;;;;-0.52;83.54;97297.19;5015551;28;20193;-82
2023/02/11 03:32:48;;;;;;;9.40;6.00;;;;;;;-0.42;83.44;97295.25;5031618;28;20205;-81
2023/02/11 03:35:22;;;;;;;9.03;5.67;;;;;;;-0.40;83.71;97296.03;5032316;28;20215;-82
2023/02/11 03:37:56;;;;;;;7.93;4.80;;;;;;;-0.32;83.46;97305.19;5026418;28;20210;-82
2023/02/11 03:40:28;;;;;;;6.97;4.83;;;;;;;-0.25;83.67;97305.03;5015354;28;20206;-82
2023/02/11 03:42:57;;;;;;;6.50;4.67;;;;;;;-0.29;83.52;97294.06;5019405;28;20208;-82
2023/02/11 03:45:23;;;;;;;8.30;5.23;;;;;;;-0.21;83.81;97291.31;5024228;28;20191;-82
2023/02/11 03:47:54;;;;;;;7.73;5.37;;;;;;;-0.16;83.54;97300.53;5010813;28;20185;-82
2023/02/11 03:50:19;;;;;;;9.40;4.93;;;;;;;-0.21;84.14;97286.19;5006368;28;20560;-83
2023/02/11 03:52:46;;;;;;;7.13;4.37;;;;;;;-0.09;83.45;97289.28;5002849;28;20233;-82
2023/02/11 03:55:15;;;;;;;6.00;4.13;;;;;;;-0.05;84.04;97295.16;5007819;28;20603;-82
2023/02/11 03:57:40;;;;;;;5.90;4.10;;;;;;;0.03;83.40;97294.94;5018058;28;20686;-81
2023/02/11 04:00:06;;;;;;;5.97;4.30;;;;;;;0.03;83.58;97292.38;5033386;28;20201;-83
2023/02/11 04:02:33;;;;;;;7.83;4.43;;;;;;;0.10;83.10;97293.91;5017124;28;20567;-81
2023/02/11 04:04:59;;;;;;;6.67;4.27;;;;;;;0.12;82.86;97290.44;5027134;28;20190;-82
2023/02/11 04:07:25;;;;;;;5.77;4.23;;;;;;;0.17;83.42;97298.78;5033380;28;20248;-82
2023/02/11 04:09:50;;;;;;;6.80;4.17;;;;;;;0.26;83.10;97303.63;5017898;28;20189;-81
2023/02/11 04:12:16;;;;;;;4.87;3.50;;;;;;;0.30;82.73;97299.31;5016707;28;20213;-82
2023/02/11 04:14:41;;;;;;;5.47;3.70;;;;;;;0.36;82.93;97303.41;5015116;28;20565;-81
2023/02/11 04:17:06;;;;;;;5.23;3.87;;;;;;;0.38;82.89;97311.88;5016581;28;20206;-81
2023/02/11 04:19:32;;;;;;;5.57;3.77;;;;;;;0.40;82.94;97317.78;5020676;28;20280;-82
2023/02/11 04:21:57;;;;;;;7.40;4.53;;;;;;;0.45;83.37;97321.88;5008258;28;20255;-81
2023/02/11 04:24:22;;;;;;;7.37;4.30;;;;;;;0.55;82.68;97307.13;5032703;28;20181;-81
2023/02/11 04:26:48;;;;;;;5.57;3.90;;;;;;;0.56;82.95;97317.31;5014406;28;20213;-81
2023/02/11 04:29:13;;;;;;;6.53;4.33;;;;;;;0.62;83.23;97303.53;5013011;28;20186;-81
2023/02/11 04:31:38;;;;;;;7.17;4.23;;;;;;;0.75;83.26;97311.66;5047628;28;20175;-83
2023/02/11 04:34:04;;;;;;;5.73;4.10;;;;;;;0.83;82.92;97309.72;5048088;28;20408;-82
2023/02/11 04:36:29;;;;;;;5.30;4.20;;;;;;;0.89;82.81;97301.88;5044843;28;20167;-79
2023/02/11 04:38:54;;;;;;;6.27;4.03;;;;;;;0.98;82.14;97287.97;5036226;28;20225;-82
2023/02/11 04:41:19;;;;;;;9.93;4.33;;;;;;;1.01;82.56;97285.31;5015749;28;20198;-81
2023/02/11 04:43:45;;;;;;;11.93;6.10;;;;;;;1.03;82.34;97288.66;5017993;28;20203;-82
2023/02/11 04:46:10;;;;;;;8.97;5.57;;;;;;;1.10;82.08;97290.13;5006756;28;20252;-82
2023/02/11 04:48:35;;;;;;;12.23;6.27;;;;;;;1.16;81.61;97289.13;5012595;28;20233;-81
2023/02/11 04:51:02;;;;;;;8.20;5.13;;;;;;;1.16;81.17;97296.78;5016320;28;20216;-81
2023/02/11 04:53:27;;;;;;;10.77;5.00;;;;;;;1.15;81.32;97295.97;5007279;28;20310;-81
2023/02/11 04:55:53;;;;;;;8.07;4.40;;;;;;;1.12;81.87;97298.59;5020000;28;20560;-82
2023/02/11 04:58:18;;;;;;;5.13;3.80;;;;;;;1.19;81.06;97297.53;5005635;28;20206;-81
2023/02/11 05:00:44;;;;;;;6.27;3.50;;;;;;;1.20;81.41;97298.38;5035011;28;20643;-82
2023/02/11 05:03:09;;;;;;;6.83;3.87;;;;;;;1.26;81.20;97293.06;5025842;28;20293;-82
2023/02/11 05:05:39;;;;;;;7.77;3.77;;;;;;;1.33;80.64;97294.53;5022082;28;20226;-82
2023/02/11 05:08:04;;;;;;;7.37;3.67;;;;;;;1.42;80.51;97292.53;5020219;28;20745;-82
2023/02/11 05:10:30;;;;;;;5.43;3.90;;;;;;;1.40;80.11;97278.91;5020841;28;20190;-82
2023/02/11 05:12:55;;;;;;;6.97;3.80;;;;;;;1.41;79.84;97274.63;5019859;28;20251;-82
2023/02/11 05:15:20;;;;;;;6.43;4.10;;;;;;;1.42;79.54;97271.22;5020002;28;20198;-81
2023/02/11 05:17:45;;;;;;;5.87;3.70;;;;;;;1.45;79.42;97272.81;5017654;28;20221;-81
2023/02/11 05:20:11;;;;;;;7.67;4.50;;;;;;;1.35;79.09;97257.78;5013014;28;20194;-81
2023/02/11 05:22:36;;;;;;;5.23;3.70;;;;;;;1.30;78.60;97254.50;5006873;28;20209;-82
2023/02/11 05:25:01;;;;;;;6.03;4.30;;;;;;;1.35;78.55;97244.13;5008743;28;20195;-82
2023/02/11 05:27:27;;;;;;;8.30;4.00;;;;;;;1.36;79.03;97238.97;5029902;28;20812;-82
2023/02/11 05:29:52;;;;;;;4.97;3.40;;;;;;;1.49;78.62;97238.53;5025194;28;20191;-81
2023/02/11 05:32:18;;;;;;;4.63;3.23;;;;;;;1.36;77.98;97240.69;5020574;28;20207;-81
2023/02/11 05:34:43;;;;;;;4.27;3.23;;;;;;;1.54;77.13;97236.69;5016454;28;20587;-81
2023/02/11 05:37:08;;;;;;;6.00;3.43;;;;;;;1.58;77.27;97233.13;5007785;28;20210;-81
2023/02/11 05:39:33;;;;;;;5.90;3.70;;;;;;;1.49;77.44;97223.19;5013707;28;20194;-81
2023/02/11 05:41:59;;;;;;;4.47;3.47;;;;;;;1.37;77.73;97203.97;5019152;28;20225;-81
2023/02/11 05:44:24;;;;;;;6.03;4.30;;;;;;;1.31;77.60;97212.66;5030698;28;20191;-81
2023/02/11 05:46:49;;;;;;;6.07;3.60;;;;;;;1.33;77.25;97217.75;5025227;28;20722;-82
2023/02/11 05:49:16;;;;;;;4.90;3.90;;;;;;;1.35;77.44;97221.94;5016676;28;20281;-82
2023/02/11 05:51:41;;;;;;;5.03;3.27;;;;;;;1.39;77.30;97238.00;5019225;28;20648;-80
2023/02/11 05:54:06;;;;;;;4.03;3.47;;;;;;;1.44;76.68;97241.28;5024921;28;20193;-80
2023/02/11 05:56:31;;;;;;;6.07;3.87;;;;;;;1.29;77.30;97255.41;5030545;28;20217;-79
2023/02/11 05:58:58;;;;;;;6.73;4.60;;;;;;;1.28;77.79;97266.53;5017701;28;20268;-82
2023/02/11 06:01:23;;;;;;;6.83;5.07;;;;;;;1.11;77.91;97261.09;5017082;28;20217;-81
2023/02/11 06:03:50;;;;;;;8.17;4.87;;;;;;;1.30;77.03;97258.78;5024620;28;20207;-81
2023/02/11 06:06:15;;;;;;;8.37;5.47;;;;;;;1.29;77.45;97262.25;5001676;28;20710;-83
2023/02/11 06:08:41;;;;;;;7.13;5.33;;;;;;;1.29;77.30;97268.19;5015287;28;20225;-81
2023/02/11 06:11:07;;;;;;;7.87;5.30;;;;;;;1.26;77.32;97273.41;5010335;28;20205;-81
2023/02/11 06:13:33;;;;;;;6.70;5.13;;;;;;;1.23;77.57;97267.53;5015416;28;20206;-81
2023/02/11 06:15:59;;;;;;;6.43;5.00;;;;;;;1.21;77.87;97279.56;4999009;28;20793;-81
2023/02/11 06:18:24;;;;;;;7.73;4.77;;;;;;;1.18;78.08;97285.63;5016539;28;20214;-80
2023/02/11 06:20:49;;;;;;;6.30;5.00;;;;;;;1.18;78.22;97289.91;5023384;28;20225;-80
2023/02/11 06:23:15;;;;;;;9.80;6.60;;;;;;;1.15;78.22;97280.59;5018143;28;20601;-82
2023/02/11 06:25:40;;;;;;;8.17;5.57;;;;;;;1.14;78.12;97278.91;5015932;28;20194;-82
2023/02/11 06:28:05;;;;;;;7.97;5.40;;;;;;;1.10;78.77;97273.06;5004927;28;20589;-81
2023/02/11 06:30:31;;;;;;;7.07;5.20;;;;;;;1.06;78.86;97268.06;5028378;28;20193;-81
2023/02/11 06:32:56;;;;;;;7.60;5.00;;;;;;;1.12;79.34;97260.22;5015797;28;20301;-81
2023/02/11 06:35:21;;;;;;;5.90;4.57;;;;;;;1.09;79.49;97244.97;5011898;28;20647;-81
2023/02/11 06:37:48;;;;;;;6.67;4.70;;;;;;;1.01;79.36;97249.50;5023167;28;20203;-81
2023/02/11 06:40:14;;;;;;;19.07;8.37;;;;;;;1.08;79.84;97256.09;5025624;28;20197;-81
2023/02/11 06:42:39;;;;;;;12.77;7.40;;;;;;;1.13;79.15;97260.16;5014712;28;20214;-82
2023/02/11 06:45:07;;;;;;;13.53;7.93;;;;;;;1.13;78.84;97265.28;5009064;28;20206;-82
2023/02/11 06:47:33;;;;;;;15.37;8.40;;;;;;;1.14;79.41;97268.66;5020797;28;20179;-81
2023/02/11 06:49:58;;;;;;;16.67;8.50;;;;;;;1.15;79.24;97262.69;5015876;28;20191;-81
2023/02/11 06:52:23;;;;;;;15.40;8.40;;;;;;;1.13;79.70;97261.88;5033169;28;20261;-82
2023/02/11 06:54:48;;;;;;;13.10;8.17;;;;;;;1.11;79.76;97266.22;5023734;28;20549;-81
2023/02/11 06:57:14;;;;;;;14.60;7.93;;;;;;;1.10;79.75;97267.09;5029326;28;20207;-80
2023/02/11 06:59:39;;;;;;;15.63;8.03;;;;;;;1.09;80.24;97271.38;5031091;28;20205;-80
2023/02/11 07:02:05;;;;;;;15.10;8.27;;;;;;;1.09;80.25;97273.13;5029121;28;20300;-81
2023/02/11 07:04:31;;;;;;;13.20;7.67;;;;;;;1.13;80.70;97282.34;5020779;28;20267;-81
2023/02/11 07:06:56;;;;;;;10.57;6.90;;;;;;;1.23;79.83;97288.84;5013139;28;20183;-83
2023/02/11 07:09:21;;;;;;;9.10;6.77;;;;;;;1.20;79.02;97283.00;5017671;28;20252;-82
2023/02/11 07:11:46;;;;;;;8.37;5.37;;;;;;;1.19;79.42;97282.16;5006917;28;20195;-81
2023/02/11 07:14:12;;;;;;;6.10;4.37;;;;;;;1.23;79.32;97281.19;5030345;28;20550;-80
2023/02/11 07:16:37;;;;;;;6.47;4.47;;;;;;;1.27;78.46;97287.88;5021509;28;20288;-79
2023/02/11 07:19:03;;;;;;;6.67;4.20;;;;;;;1.37;78.89;97281.59;5008416;28;20582;-78
2023/02/11 07:21:28;;;;;;;7.90;4.00;;;;;;;1.35;78.76;97277.41;5011582;28;20550;-80
2023/02/11 07:23:54;;;;;;;5.40;4.17;;;;;;;1.34;79.00;97273.19;5014751;28;20211;-80
2023/02/11 07:26:21;;;;;;;6.20;4.17;;;;;;;1.39;78.71;97282.38;5018026;28;20194;-80
2023/02/11 07:28:48;;;;;;;4.90;4.33;;;;;;;1.46;78.13;97280.44;5013331;28;20186;-81
2023/02/11 07:31:16;;;;;;;7.00;4.23;;;;;;;1.51;78.23;97288.00;5014961;28;20312;-80
2023/02/11 07:33:42;;;;;;;6.93;5.60;;;;;;;1.59;77.89;97291.13;5015405;28;20675;-81
2023/02/11 07:36:09;;;;;;;9.60;6.77;;;;;;;1.54;77.95;97304.09;5026835;28;20197;-80
2023/02/11 07:38:35;;;;;;;8.60;7.10;;;;;;;1.65;77.97;97306.28;5030446;28;21029;-81
2023/02/11 07:41:02;;;;;;;8.73;7.23;;;;;;;1.66;77.95;97311.34;5013891;28;20205;-81
2023/02/11 07:43:28;;;;;;;9.77;8.10;;;;;;;1.74;77.78;97311.09;5027973;28;20202;-79
2023/02/11 07:45:53;;;;;;;10.90;9.00;;;;;;;1.72;77.54;97320.56;5022608;28;20198;-79
2023/02/11 07:48:18;;;;;;;15.70;12.10;;;;;;;1.77;78.18;97323.84;5014006;28;20559;-80
2023/02/11 07:50:44;;;;;;;13.83;10.27;;;;;;;1.90;77.69;97317.41;4998884;28;20191;-80
2023/02/11 07:53:09;;;;;;;10.80;8.27;;;;;;;1.98;77.28;97314.59;5020804;28;20225;-81
2023/02/11 07:55:35;;;;;;;11.40;8.20;;;;;;;2.05;77.00;97321.19;5009170;28;20186;-80
2023/02/11 07:58:00;;;;;;;8.43;5.40;;;;;;;2.03;76.78;97299.88;5032135;28;20214;-81
2023/02/11 08:00:25;;;;;;;5.57;4.13;;;;;;;2.15;76.44;97296.91;5028868;28;20201;-79
2023/02/11 08:02:50;;;;;;;7.03;3.80;;;;;;;2.28;75.71;97287.03;5008239;28;20310;-81
2023/02/11 08:05:16;;;;;;;7.77;5.10;;;;;;;2.45;75.20;97294.13;5002072;28;20194;-80
2023/02/11 08:07:41;;;;;;;7.97;5.70;;;;;;;2.51;74.57;97294.75;5000157;28;20206;-80
2023/02/11 08:10:07;;;;;;;10.37;8.20;;;;;;;2.58;74.94;97297.09;5005349;28;20187;-78
2023/02/11 08:12:32;;;;;;;10.17;9.07;;;;;;;2.71;74.36;97306.00;5027133;28;20217;-79
2023/02/11 08:14:57;;;;;;;11.53;10.33;;;;;;;2.79;74.12;97298.84;5034004;28;20186;-80
2023/02/11 08:17:22;;;;;;;9.07;7.20;;;;;;;2.91;73.74;97302.69;5033111;28;20388;-79
2023/02/11 08:19:48;;;;;;;9.47;7.17;;;;;;;2.94;73.26;97297.47;5010896;28;20562;-78
2023/02/11 08:22:13;;;;;;;6.90;5.80;;;;;;;3.04;72.65;97302.16;5003767;28;20263;-78
2023/02/11 08:24:39;;;;;;;10.57;6.20;;;;;;;3.18;72.73;97301.66;5018065;28;20182;-79
2023/02/11 08:27:04;;;;;;;8.63;5.53;;;;;;;3.25;72.37;97303.06;5025914;28;20237;-79
2023/02/11 08:29:29;;;;;;;5.50;3.90;;;;;;;3.21;70.96;97295.56;5013995;28;20183;-79
2023/02/11 08:31:55;;;;;;;4.43;4.03;;;;;;;3.36;70.92;97279.56;5035431;28;20216;-79
2023/02/11 08:34:20;;;;;;;7.10;4.80;;;;;;;3.10;71.65;97283.16;5038366;28;20183;-78
2023/02/11 08:36:46;;;;;;;8.67;5.63;;;;;;;3.30;71.19;97284.94;5018215;28;20194;-77
2023/02/11 08:39:15;;;;;;;8.57;4.90;;;;;;;3.53;70.78;97295.09;5026053;28;20192;-80
2023/02/11 08:41:40;;;;;;;10.90;5.50;;;;;;;3.68;70.48;97289.34;5024732;28;20274;-79
2023/02/11 08:44:05;;;;;;;6.90;4.77;;;;;;;3.76;69.83;97285.63;5031135;28;20297;-78
2023/02/11 08:46:31;;;;;;;5.40;3.90;;;;;;;3.86;69.54;97286.91;5035671;28;20179;-78
2023/02/11 08:48:56;;;;;;;4.83;4.10;;;;;;;3.90;69.26;97284.16;5041019;28;20183;-79
2023/02/11 08:51:27;;;;;;;5.33;4.10;;;;;;;4.01;69.40;97286.28;5017660;28;20186;-80
2023/02/11 08:53:53;;;;;;;6.97;4.10;;;;;;;4.13;68.96;97292.63;5011950;28;20246;-78
2023/02/11 08:56:19;;;;;;;4.87;3.40;;;;;;;4.24;68.67;97282.69;5024122;28;20195;-78
2023/02/11 08:58:45;;;;;;;6.10;3.20;;;;;;;4.38;68.05;97287.25;5019945;28;20207;-79
2023/02/11 09:01:12;;;;;;;3.60;3.20;;;;;;;4.22;68.14;97282.78;5019697;28;20179;-79
2023/02/11 09:03:38;;;;;;;6.73;3.37;;;;;;;4.42;67.32;97281.09;5031523;28;20213;-78
2023/02/11 09:06:05;;;;;;;4.37;3.03;;;;;;;4.32;67.48;97285.78;5035010;28;20195;-78
2023/02/11 09:08:30;;;;;;;3.57;3.03;;;;;;;4.39;66.88;97274.31;5037345;28;20179;-79
2023/02/11 09:10:56;;;;;;;3.87;3.13;;;;;;;4.29;66.84;97275.63;5017927;28;20191;-79
2023/02/11 09:13:21;;;;;;;7.43;3.57;;;;;;;4.35;66.80;97272.78;5027722;28;20199;-79
2023/02/11 09:15:46;;;;;;;6.60;4.50;;;;;;;4.41;66.94;97277.66;5029448;28;20192;-79
2023/02/11 09:18:12;;;;;;;6.17;3.60;;;;;;;4.49;65.67;97267.84;5047280;28;20218;-78
2023/02/11 09:20:37;;;;;;;4.50;3.20;;;;;;;4.63;66.06;97267.25;5040062;28;20183;-78
2023/02/11 09:23:03;;;;;;;6.20;3.70;;;;;;;4.44;65.98;97267.25;5015999;28;20207;-79
2023/02/11 09:25:28;;;;;;;7.13;3.93;;;;;;;4.45;65.62;97262.94;5027945;28;20178;-80
2023/02/11 09:27:53;;;;;;;8.53;4.20;;;;;;;4.65;65.75;97265.44;5036074;28;20709;-80
2023/02/11 09:30:19;;;;;;;6.63;5.03;;;;;;;4.74;65.62;97259.88;5026619;28;20196;-79
2023/02/11 09:32:44;;;;;;;8.03;4.10;;;;;;;4.82;65.77;97252.63;5031765;28;20227;-79
2023/02/11 09:35:09;;;;;;;5.40;3.47;;;;;;;4.92;65.44;97262.50;5024949;28;20185;-80
2023/02/11 09:37:35;;;;;;;6.20;3.30;;;;;;;4.96;65.03;97256.31;5028115;28;20200;-80
2023/02/11 09:40:00;;;;;;;5.63;3.20;;;;;;;4.88;64.21;97268.72;5022462;28;20480;-80
2023/02/11 09:42:40;;;;;;;4.07;3.00;;;;;;;4.87;64.44;97261.91;5029679;28;20409;-80
2023/02/11 09:45:14;;;;;;;5.13;3.00;;;;;;;4.85;63.71;97261.94;5037402;28;20223;-78
2023/02/11 09:47:47;;;;;;;4.70;3.13;;;;;;;4.92;63.79;97271.06;5036119;28;20180;-78
2023/02/11 09:50:15;;;;;;;5.07;2.50;;;;;;;4.84;63.54;97283.44;5025141;28;20188;-78
2023/02/11 09:52:57;;;;;;;4.40;2.30;;;;;;;4.73;63.77;97288.25;5015496;28;20221;-78
2023/02/11 09:55:44;;;;;;;3.87;2.60;;;;;;;4.92;63.72;97290.81;5015637;28;20191;-79
2023/02/11 09:58:26;;;;;;;4.50;2.80;;;;;;;4.94;62.80;97291.59;5023361;28;20203;-79
2023/02/11 10:01:15;;;;;;;3.90;2.93;;;;;;;4.90;63.32;97300.38;5023376;28;20196;-78
2023/02/11 10:04:13;;;;;;;4.93;3.33;;;;;;;4.96;63.47;97307.81;5025912;28;20202;-79
2023/02/11 10:06:56;;;;;;;6.17;4.00;;;;;;;5.03;63.63;97316.91;5038782;28;20187;-79
2023/02/11 10:09:55;;;;;;;4.93;3.40;;;;;;;5.12;63.14;97311.31;5036865;28;20183;-79
2023/02/11 10:12:38;;;;;;;6.80;4.10;;;;;;;5.22;63.10;97320.31;5039110;28;20210;-79
2023/02/11 10:15:22;;;;;;;6.73;4.20;;;;;;;5.25;63.08;97319.34;5038540;28;20196;-79
2023/02/11 10:17:54;;;;;;;5.80;4.37;;;;;;;5.22;62.90;97322.91;5033787;28;20207;-79
2023/02/11 10:20:31;;;;;;;7.43;4.70;;;;;;;5.09;64.25;97329.50;5019949;28;20194;-79
2023/02/11 10:23:04;;;;;;;9.30;5.47;;;;;;;4.94;65.49;97333.59;5017941;28;20202;-77
2023/02/11 10:25:37;;;;;;;7.40;5.50;;;;;;;4.97;65.47;97332.66;5022303;28;20186;-82
2023/02/11 10:28:32;;;;;;;9.23;6.37;;;;;;;5.02;66.15;97331.53;5035378;28;20239;-80
2023/02/11 10:31:04;;;;;;;8.77;6.07;;;;;;;4.89;66.71;97325.28;4998333;28;20205;-80
2023/02/11 10:33:38;;;;;;;12.00;6.70;;;;;;;4.98;67.15;97330.00;4996168;28;20240;-79
2023/02/11 10:36:04;;;;;;;9.53;6.13;;;;;;;5.02;66.61;97321.22;5014434;28;20744;-80
2023/02/11 10:38:29;;;;;;;9.67;6.30;;;;;;;5.10;66.57;97318.28;4999299;28;20211;-79
2023/02/11 10:40:54;;;;;;;10.77;6.47;;;;;;;5.15;66.17;97312.94;5011774;28;20199;-79
2023/02/11 10:43:23;;;;;;;8.43;6.03;;;;;;;5.23;66.29;97309.09;4979372;28;20226;-80
2023/02/11 10:45:53;;;;;;;10.53;5.87;;;;;;;5.42;65.80;97313.38;4987833;28;20580;-79
2023/02/11 10:48:38;;;;;;;7.80;5.40;;;;;;;5.49;65.14;97304.47;4983476;28;20195;-79
2023/02/11 10:51:06;;;;;;;8.53;5.70;;;;;;;5.55;65.19;97296.41;4997433;28;20232;-79
2023/02/11 10:53:33;;;;;;;12.77;8.20;;;;;;;5.59;64.90;97291.06;5012361;28;20214;-79
2023/02/11 10:55:58;;;;;;;10.00;7.07;;;;;;;5.39;65.19;97296.34;4989879;28;20218;-79
2023/02/11 10:58:27;;;;;;;11.10;6.13;;;;;;;5.66;65.55;97286.44;4979140;28;20215;-79
2023/02/11 11:00:55;;;;;;;12.73;6.97;;;;;;;5.74;64.27;97281.72;4979708;28;20203;-79
2023/02/11 11:03:23;;;;;;;9.73;6.30;;;;;;;5.78;64.14;97279.84;4977678;28;20211;-79
2023/02/11 11:05:55;;;;;;;10.10;6.03;;;;;;;5.89;64.27;97273.22;4964178;28;20691;-79
2023/02/11 11:08:20;;;;;;;10.47;7.13;;;;;;;5.99;64.57;97270.22;5013241;28;20195;-79
2023/02/11 11:10:48;;;;;;;9.50;7.27;;;;;;;5.99;64.86;97272.81;5022030;28;20198;-80
2023/02/11 11:13:26;;;;;;;11.37;6.47;;;;;;;6.06;64.36;97264.69;5025528;28;20207;-78
2023/02/11 11:16:13;;;;;;;9.27;6.60;;;;;;;6.22;63.98;97269.91;5020200;28;20186;-79
2023/02/11 11:18:43;;;;;;;10.50;7.03;;;;;;;6.18;64.54;97268.38;5022490;28;20210;-79
2023/02/11 11:21:17;;;;;;;13.10;7.47;;;;;;;6.22;64.60;97265.56;5002534;28;20231;-79
2023/02/11 11:23:50;;;;;;;10.07;6.70;;;;;;;6.04;65.76;97268.25;5011095;28;20203;-79
2023/02/11 11:26:19;;;;;;;12.27;7.37;;;;;;;5.88;65.22;97269.00;5024171;28;20186;-87
2023/02/11 11:29:00;;;;;;;11.73;8.23;;;;;;;6.04;65.60;97265.69;5007934;28;20215;-86
2023/02/11 11:31:45;;;;;;;12.57;7.77;;;;;;;6.23;65.13;97272.41;5015160;28;20187;-80
2023/02/11 11:34:22;;;;;;;11.20;7.33;;;;;;;6.39;64.54;97277.59;5027721;28;20205;-78
2023/02/11 11:36:48;;;;;;;10.80;7.97;;;;;;;6.34;64.20;97282.16;5005120;28;20198;-79
2023/02/11 11:39:26;;;;;;;11.93;7.90;;;;;;;6.56;64.43;97278.47;5009424;28;20248;-80
2023/02/11 11:41:57;;;;;;;15.67;9.13;;;;;;;6.39;64.26;97282.75;5012956;28;20259;-78
2023/02/11 11:44:30;;;;;;;14.17;7.57;;;;;;;6.51;63.98;97279.53;5007091;28;20196;-81
2023/02/11 11:47:11;;;;;;;12.30;8.80;;;;;;;6.55;63.96;97274.22;5027427;28;20206;-79
2023/02/11 11:50:07;;;;;;;11.03;7.93;;;;;;;6.58;63.72;97276.63;5014786;28;20213;-79